createdAt,value
2022-11-14T00:00:02.237Z,31.38
2022-11-14T00:02:48.027Z,28.95
2022-11-14T00:05:42.216Z,29.25
2022-11-14T00:08:28.313Z,29.77
2022-11-14T00:13:59.701Z,29.88
2022-11-14T00:16:46.459Z,29.42
2022-11-14T00:19:32.106Z,32.10
2022-11-14T00:22:18.073Z,32.92
2022-11-14T00:27:50.607Z,30.88
2022-11-14T00:30:36.339Z,32.70
2022-11-14T00:33:22.130Z,32.03
2022-11-14T00:38:55.273Z,32.15
2022-11-14T00:41:42.385Z,30.83
2022-11-14T00:44:28.181Z,36.00
2022-11-14T00:47:13.990Z,32.80
2022-11-14T00:49:59.616Z,34.67
2022-11-14T00:52:45.547Z,34.83
2022-11-14T00:55:31.647Z,35.45
2022-11-14T00:58:17.497Z,37.38
2022-11-14T01:01:03.217Z,36.10
2022-11-14T01:06:36.742Z,34.88
2022-11-14T01:09:22.710Z,36.13
2022-11-14T01:12:08.596Z,36.28
2022-11-14T01:14:54.540Z,36.13
2022-11-14T01:20:26.164Z,37.90
2022-11-14T01:23:14.597Z,39.63
2022-11-14T01:26:13.827Z,37.90
2022-11-14T01:28:59.850Z,39.47
2022-11-14T01:31:45.441Z,39.38
2022-11-14T01:34:31.288Z,40.60
2022-11-14T01:37:17.006Z,38.75
2022-11-14T01:40:03.096Z,37.97
2022-11-14T01:43:16.524Z,39.25
2022-11-14T01:46:32.063Z,38.13
2022-11-14T01:49:41.876Z,38.10
2022-11-14T01:52:39.521Z,37.60
2022-11-14T01:55:27.291Z,36.50
2022-11-14T01:58:14.787Z,37.17
2022-11-14T02:01:01.031Z,34.53
2022-11-14T02:03:52.345Z,34.58
2022-11-14T02:06:40.193Z,35.63
2022-11-14T02:09:28.865Z,36.20
2022-11-14T02:12:19.192Z,34.03
2022-11-14T02:15:06.070Z,34.63
2022-11-14T02:17:51.821Z,32.45
2022-11-14T02:20:43.292Z,34.83
2022-11-14T02:23:32.418Z,33.78
2022-11-14T02:26:22.717Z,32.17
2022-11-14T02:29:11.559Z,34.15
2022-11-14T02:31:57.599Z,34.25
2022-11-14T02:34:43.355Z,34.22
2022-11-14T02:37:29.621Z,32.45
2022-11-14T02:40:15.783Z,35.85
2022-11-14T02:43:01.655Z,35.67
2022-11-14T02:45:47.512Z,36.65
2022-11-14T02:48:33.348Z,36.00
2022-11-14T02:51:18.708Z,36.22
2022-11-14T02:54:04.965Z,34.25
2022-11-14T02:59:36.496Z,35.33
2022-11-14T03:02:22.384Z,35.08
2022-11-14T03:05:08.770Z,36.97
2022-11-14T03:07:56.086Z,37.80
2022-11-14T03:10:41.929Z,37.47
2022-11-14T03:13:30.227Z,37.80
2022-11-14T03:16:16.368Z,35.97
2022-11-14T03:19:02.534Z,38.42
2022-11-14T03:21:48.173Z,38.05
2022-11-14T03:24:33.970Z,38.58
2022-11-14T03:27:21.070Z,38.83
2022-11-14T03:30:08.098Z,37.97
2022-11-14T03:32:56.457Z,37.83
2022-11-14T03:35:45.383Z,39.22
2022-11-14T03:38:32.528Z,37.55
2022-11-14T03:41:18.331Z,40.38
2022-11-14T03:44:04.214Z,38.40
2022-11-14T03:46:51.430Z,39.63
2022-11-14T03:49:37.208Z,40.95
2022-11-14T03:52:22.820Z,41.28
2022-11-14T03:55:08.889Z,42.42
2022-11-14T03:57:54.534Z,41.90
2022-11-14T04:03:26.719Z,38.67
2022-11-14T04:06:12.569Z,38.42
2022-11-14T04:08:58.521Z,41.35
2022-11-14T04:14:30.435Z,42.38
2022-11-14T04:17:16.508Z,42.03
2022-11-14T04:20:02.296Z,45.03
2022-11-14T04:22:48.041Z,42.85
2022-11-14T04:25:33.949Z,44.00
2022-11-14T04:28:19.753Z,45.13
2022-11-14T04:31:06.163Z,46.67
2022-11-14T04:33:52.035Z,42.75
2022-11-14T04:39:24.146Z,44.60
2022-11-14T04:42:10.029Z,43.63
2022-11-14T04:44:55.802Z,42.97
2022-11-14T04:47:43.077Z,42.92
2022-11-14T04:50:29.027Z,43.90
2022-11-14T04:56:00.519Z,43.35
2022-11-14T04:58:46.332Z,44.38
2022-11-14T05:01:31.958Z,45.83
2022-11-14T05:04:17.477Z,44.25
2022-11-14T05:07:03.328Z,45.10
2022-11-14T05:09:49.176Z,44.67
2022-11-14T05:12:35.319Z,44.83
2022-11-14T05:15:21.567Z,44.90
2022-11-14T05:20:53.093Z,44.13
2022-11-14T05:23:39.002Z,43.90
2022-11-14T05:26:24.698Z,47.17
2022-11-14T05:29:10.523Z,45.05
2022-11-14T05:31:57.800Z,45.53
2022-11-14T05:34:43.452Z,46.25
2022-11-14T05:37:29.062Z,46.80
2022-11-14T05:40:16.954Z,46.47
2022-11-14T05:43:02.717Z,46.58
2022-11-14T05:45:48.494Z,47.20
2022-11-14T05:51:20.666Z,47.25
2022-11-14T05:54:06.471Z,45.38
2022-11-14T05:56:52.421Z,44.03
2022-11-14T06:02:24.159Z,44.65
2022-11-14T06:05:10.244Z,44.33
2022-11-14T06:07:58.734Z,44.72
2022-11-14T06:10:44.703Z,44.08
2022-11-14T06:13:31.266Z,44.53
2022-11-14T06:16:19.666Z,45.42
2022-11-14T06:19:05.599Z,46.58
2022-11-14T06:21:51.276Z,45.35
2022-11-14T06:24:36.913Z,44.58
2022-11-14T06:27:24.013Z,44.67
2022-11-14T06:30:10.815Z,44.75
2022-11-14T06:32:59.610Z,45.33
2022-11-14T06:35:45.527Z,46.67
2022-11-14T06:38:33.775Z,45.38
2022-11-14T06:41:22.608Z,46.55
2022-11-14T06:44:09.207Z,47.10
2022-11-14T06:46:56.327Z,46.13
2022-11-14T06:49:42.204Z,45.53
2022-11-14T06:52:28.212Z,46.50
2022-11-14T06:55:14.569Z,45.28
2022-11-14T07:00:46.480Z,45.78
2022-11-14T07:03:33.421Z,44.60
2022-11-14T07:06:26.262Z,43.25
2022-11-14T07:09:12.315Z,45.53
2022-11-14T07:11:57.879Z,42.15
2022-11-14T07:14:43.936Z,45.65
2022-11-14T07:17:31.524Z,42.92
2022-11-14T07:20:20.742Z,42.45
2022-11-14T07:23:06.323Z,43.78
2022-11-14T07:25:52.492Z,46.85
2022-11-14T07:28:42.939Z,43.15
2022-11-14T07:31:28.576Z,43.22
2022-11-14T07:34:14.803Z,43.85
2022-11-14T07:39:46.190Z,38.10
2022-11-14T07:42:31.783Z,38.60
2022-11-14T07:45:17.870Z,38.90
2022-11-14T07:48:05.910Z,37.63
2022-11-14T07:53:37.386Z,36.30
2022-11-14T07:56:23.207Z,36.17
2022-11-14T07:59:08.920Z,36.35
2022-11-14T08:01:54.779Z,35.25
2022-11-14T08:04:42.320Z,34.03
2022-11-14T08:07:28.442Z,33.67
2022-11-14T08:13:30.350Z,35.45
2022-11-14T08:16:13.809Z,36.10
2022-11-14T08:19:00.607Z,34.72
2022-11-14T08:21:46.376Z,36.00
2022-11-14T08:24:33.143Z,38.92
2022-11-14T08:30:05.674Z,34.30
2022-11-14T08:32:52.250Z,33.90
2022-11-14T08:35:38.168Z,32.42
2022-11-14T08:38:23.964Z,31.35
2022-11-14T08:43:55.936Z,31.35
2022-11-14T08:49:28.111Z,32.20
2022-11-14T08:52:16.923Z,34.72
2022-11-14T08:55:03.423Z,32.85
2022-11-14T08:57:50.068Z,32.95
2022-11-14T09:00:36.140Z,32.00
2022-11-14T09:03:21.945Z,31.40
2022-11-14T09:08:53.671Z,29.48
2022-11-14T09:11:39.926Z,29.20
2022-11-14T09:14:25.885Z,29.83
2022-11-14T09:17:11.909Z,33.00
2022-11-14T09:19:57.848Z,33.17
2022-11-14T09:22:43.711Z,31.00
2022-11-14T09:25:30.913Z,28.60
2022-11-14T09:28:16.859Z,28.35
2022-11-14T09:31:08.515Z,28.85
2022-11-14T09:33:54.578Z,28.52
2022-11-14T09:36:40.471Z,29.17
2022-11-14T09:39:26.231Z,28.50
2022-11-14T09:42:59.554Z,30.10
2022-11-14T09:45:52.960Z,28.70
2022-11-14T09:48:39.174Z,25.35
2022-11-14T09:51:33.488Z,25.08
2022-11-14T09:54:25.764Z,26.20
2022-11-14T09:57:20.775Z,24.48
2022-11-14T10:00:23.108Z,25.52
2022-11-14T10:03:58.747Z,22.90
2022-11-14T10:07:18.385Z,23.00
2022-11-14T10:10:27.974Z,22.65
2022-11-14T10:14:04.880Z,20.52
2022-11-14T10:17:56.635Z,21.08
2022-11-14T10:20:53.851Z,22.25
2022-11-14T10:24:06.006Z,23.05
2022-11-14T10:27:06.527Z,22.38
2022-11-14T10:30:15.491Z,18.52
2022-11-14T10:33:19.988Z,20.02
2022-11-14T10:36:35.280Z,21.20
2022-11-14T10:39:52.693Z,22.92
2022-11-14T10:42:44.795Z,19.50
2022-11-14T10:45:47.613Z,18.45
2022-11-14T10:48:44.690Z,17.60
2022-11-14T10:51:50.469Z,17.92
2022-11-14T10:55:00.051Z,18.10
2022-11-14T10:57:46.551Z,17.80
2022-11-14T11:00:32.459Z,18.70
2022-11-14T11:03:18.223Z,17.90
2022-11-14T11:06:04.037Z,17.80
2022-11-14T11:09:09.002Z,17.10
2022-11-14T11:12:02.676Z,17.40
2022-11-14T11:15:15.070Z,18.20
2022-11-14T11:18:26.030Z,16.23
2022-11-14T11:21:15.790Z,16.40
2022-11-14T11:24:01.878Z,17.70
2022-11-14T11:26:47.330Z,17.48
2022-11-14T11:29:33.230Z,16.85
2022-11-14T11:32:26.520Z,17.52
2022-11-14T11:35:17.716Z,17.75
2022-11-14T11:38:05.207Z,17.65
2022-11-14T11:44:43.835Z,15.80
2022-11-14T11:47:35.740Z,17.77
2022-11-14T11:50:24.213Z,16.40
2022-11-14T11:53:28.406Z,16.60
2022-11-14T11:56:23.423Z,17.25
2022-11-14T11:59:38.447Z,16.77
2022-11-14T12:02:27.129Z,15.50
2022-11-14T12:05:32.852Z,16.42
2022-11-14T12:09:13.866Z,15.68
2022-11-14T12:12:25.787Z,15.82
2022-11-14T12:16:11.652Z,16.30
2022-11-14T12:19:45.023Z,15.23
2022-11-14T12:22:51.775Z,14.85
2022-11-14T12:26:18.443Z,15.73
2022-11-14T12:29:27.007Z,16.43
2022-11-14T12:32:29.276Z,15.40
2022-11-14T12:35:35.589Z,14.25
2022-11-14T12:38:22.792Z,15.63
2022-11-14T12:41:10.392Z,16.35
2022-11-14T12:44:27.385Z,15.75
2022-11-14T12:47:19.490Z,16.00
2022-11-14T12:50:49.874Z,17.10
2022-11-14T12:53:38.272Z,15.32
2022-11-14T12:56:32.741Z,15.40
2022-11-14T12:59:40.158Z,16.40
2022-11-14T13:03:04.404Z,16.45
2022-11-14T13:06:13.579Z,14.75
2022-11-14T13:09:33.875Z,16.77
2022-11-14T13:12:53.205Z,16.30
2022-11-14T13:16:14.119Z,16.00
2022-11-14T13:19:40.496Z,16.65
2022-11-14T13:22:46.643Z,15.48
2022-11-14T13:25:32.789Z,17.42
2022-11-14T13:28:37.465Z,17.42
2022-11-14T13:31:43.761Z,16.10
2022-11-14T13:34:52.662Z,15.20
2022-11-14T13:38:17.483Z,15.40
2022-11-14T13:42:03.527Z,16.67
2022-11-14T13:45:23.493Z,18.30
2022-11-14T13:48:52.969Z,18.42
2022-11-14T13:51:43.873Z,18.17
2022-11-14T13:54:30.227Z,17.88
2022-11-14T13:57:50.237Z,18.48
2022-11-14T14:01:31.778Z,17.42
2022-11-14T14:04:52.101Z,17.40
2022-11-14T14:08:32.006Z,17.65
2022-11-14T14:12:17.446Z,19.33
2022-11-14T14:15:58.448Z,16.65
2022-11-14T14:19:38.305Z,15.05
2022-11-14T14:22:39.499Z,15.88
2022-11-14T14:25:45.722Z,16.23
2022-11-14T14:29:23.779Z,17.13
2022-11-14T14:32:17.272Z,16.02
2022-11-14T14:35:37.163Z,15.95
2022-11-14T14:38:29.855Z,17.17
2022-11-14T14:41:20.124Z,16.65
2022-11-14T14:44:06.723Z,16.85
2022-11-14T14:46:54.262Z,17.85
2022-11-14T14:49:40.448Z,16.77
2022-11-14T14:52:33.984Z,17.42
2022-11-14T14:55:33.900Z,19.05
2022-11-14T14:58:23.089Z,18.80
2022-11-14T15:01:27.063Z,17.65
2022-11-14T15:04:16.325Z,18.85
2022-11-14T15:07:02.930Z,18.15
2022-11-14T15:09:58.298Z,20.33
2022-11-14T15:12:44.746Z,18.80
2022-11-14T15:15:31.787Z,19.58
2022-11-14T15:18:29.802Z,20.00
2022-11-14T15:21:29.810Z,20.73
2022-11-14T15:24:23.045Z,21.35
2022-11-14T15:27:16.322Z,20.55
2022-11-14T15:30:07.571Z,21.50
2022-11-14T15:33:01.404Z,21.52
2022-11-14T15:35:47.515Z,21.20
2022-11-14T15:38:48.992Z,22.00
2022-11-14T15:41:34.758Z,21.42
2022-11-14T15:44:35.651Z,23.70
2022-11-14T15:47:30.665Z,22.23
2022-11-14T15:50:16.168Z,24.30
2022-11-14T15:53:22.680Z,23.88
2022-11-14T15:56:13.770Z,24.10
2022-11-14T15:58:59.851Z,23.58
2022-11-14T16:01:51.414Z,22.77
2022-11-14T16:04:44.462Z,23.02
2022-11-14T16:07:33.076Z,22.20
2022-11-14T16:10:26.620Z,25.13
2022-11-14T16:13:12.552Z,29.38
2022-11-14T16:15:58.269Z,29.50
2022-11-14T16:18:44.278Z,29.05
2022-11-14T16:24:23.432Z,24.83
2022-11-14T16:27:09.961Z,23.83
2022-11-14T16:32:46.903Z,24.88
2022-11-14T16:35:32.915Z,25.67
2022-11-14T16:41:09.584Z,22.05
2022-11-14T16:43:57.331Z,23.38
2022-11-14T16:46:46.493Z,22.63
2022-11-14T16:49:32.331Z,22.75
2022-11-14T16:52:19.182Z,21.00
2022-11-14T16:55:09.818Z,24.80
2022-11-14T16:57:55.554Z,23.33
2022-11-14T17:00:43.913Z,21.63
2022-11-14T17:03:33.174Z,21.42
2022-11-14T17:06:19.592Z,22.92
2022-11-14T17:09:05.401Z,22.13
2022-11-14T17:11:51.184Z,21.33
2022-11-14T17:14:36.937Z,22.67
2022-11-14T17:17:22.688Z,21.73
2022-11-14T17:22:56.856Z,20.15
2022-11-14T17:28:28.704Z,21.13
2022-11-14T17:31:15.878Z,21.42
2022-11-14T17:34:02.918Z,21.25
2022-11-14T17:36:48.989Z,20.13
2022-11-14T17:39:35.115Z,23.25
2022-11-14T17:45:07.671Z,22.10
2022-11-14T17:47:53.538Z,21.77
2022-11-14T17:50:40.450Z,22.48
2022-11-14T17:53:26.653Z,22.33
2022-11-14T17:56:21.784Z,20.73
2022-11-14T17:59:07.672Z,19.50
2022-11-14T18:01:55.865Z,22.45
2022-11-14T18:04:41.882Z,18.98
2022-11-14T18:07:30.491Z,20.45
2022-11-14T18:10:17.410Z,24.25
2022-11-14T18:13:05.074Z,20.75
2022-11-14T18:15:51.076Z,20.33
2022-11-14T18:18:37.677Z,18.92
2022-11-14T18:21:25.539Z,19.63
2022-11-14T18:24:14.586Z,19.30
2022-11-14T18:27:00.479Z,21.77
2022-11-14T18:29:46.157Z,22.65
2022-11-14T18:35:17.966Z,22.65
2022-11-14T18:38:04.023Z,23.88
2022-11-14T18:40:55.897Z,23.73
2022-11-14T18:43:44.456Z,32.17
2022-11-14T18:46:36.944Z,23.77
2022-11-14T18:49:23.794Z,23.55
2022-11-14T18:52:15.846Z,24.40
2022-11-14T18:55:05.337Z,23.27
2022-11-14T18:57:52.264Z,23.52
2022-11-14T19:00:38.107Z,23.23
2022-11-14T19:03:23.639Z,22.48
2022-11-14T19:06:12.937Z,22.83
2022-11-14T19:09:11.309Z,24.27
2022-11-14T19:12:16.277Z,22.15
2022-11-14T19:15:02.302Z,21.98
2022-11-14T19:17:48.570Z,23.73
2022-11-14T19:20:34.536Z,23.65
2022-11-14T19:26:06.215Z,23.92
2022-11-14T19:28:52.479Z,28.58
2022-11-14T19:31:38.707Z,28.02
2022-11-14T19:34:24.390Z,26.10
2022-11-14T19:37:10.472Z,25.65
2022-11-14T19:39:56.468Z,25.90
2022-11-14T19:42:42.286Z,26.55
2022-11-14T19:45:28.433Z,25.60
2022-11-14T19:48:14.167Z,27.02
2022-11-14T19:51:10.469Z,29.00
2022-11-14T19:53:59.745Z,30.15
2022-11-14T19:56:45.562Z,31.25
2022-11-14T19:59:31.508Z,33.95
2022-11-14T20:02:17.546Z,31.58
2022-11-14T20:05:03.291Z,33.40
2022-11-14T20:07:49.230Z,37.10
2022-11-14T20:10:47.648Z,36.85
2022-11-14T20:13:42.254Z,34.65
2022-11-14T20:16:34.100Z,36.30
2022-11-14T20:19:20.144Z,28.17
2022-11-14T20:22:06.617Z,28.95
2022-11-14T20:24:52.516Z,33.60
2022-11-14T20:30:25.304Z,29.25
2022-11-14T20:33:14.808Z,28.50
2022-11-14T20:36:10.584Z,26.90
2022-11-14T20:38:58.064Z,28.80
2022-11-14T20:41:43.908Z,31.52
2022-11-14T20:44:29.587Z,30.25
2022-11-14T20:47:17.339Z,25.95
2022-11-14T20:50:03.656Z,27.10
2022-11-14T20:55:35.618Z,24.60
2022-11-14T20:58:21.832Z,25.50
2022-11-14T21:01:09.033Z,26.80
2022-11-14T21:03:54.750Z,26.25
2022-11-14T21:06:40.695Z,25.42
2022-11-14T21:09:26.528Z,26.25
2022-11-14T21:12:12.260Z,25.80
2022-11-14T21:14:58.109Z,26.02
2022-11-14T21:17:43.777Z,25.25
2022-11-14T21:20:29.857Z,26.63
2022-11-14T21:23:15.758Z,25.65
2022-11-14T21:26:09.436Z,24.80
2022-11-14T21:29:05.570Z,25.67
2022-11-14T21:31:51.489Z,25.52
2022-11-14T21:34:37.168Z,25.50
2022-11-14T21:37:23.107Z,25.95
2022-11-14T21:40:11.847Z,28.98
2022-11-14T21:42:57.628Z,27.88
2022-11-14T21:45:43.485Z,28.08
2022-11-14T21:48:41.091Z,27.45
2022-11-14T21:51:29.127Z,26.05
2022-11-14T21:54:16.352Z,29.98
2022-11-14T21:59:55.379Z,26.92
2022-11-14T22:02:59.740Z,28.52
2022-11-14T22:05:46.010Z,26.42
2022-11-14T22:08:33.602Z,28.38
2022-11-14T22:14:07.518Z,26.15
2022-11-14T22:16:54.204Z,28.33
2022-11-14T22:19:40.289Z,26.13
2022-11-14T22:22:26.143Z,29.35
2022-11-14T22:25:12.211Z,28.00
2022-11-14T22:27:58.121Z,30.25
2022-11-14T22:30:44.125Z,29.52
2022-11-14T22:36:26.000Z,28.15
2022-11-14T22:39:11.954Z,30.50
2022-11-14T22:41:57.659Z,30.45
2022-11-14T22:44:43.495Z,30.83
2022-11-14T22:47:30.265Z,31.63
2022-11-14T22:50:16.307Z,30.65
2022-11-14T22:55:49.021Z,28.92
2022-11-14T22:58:41.488Z,29.02
2022-11-14T23:01:32.696Z,28.15
2022-11-14T23:04:18.422Z,29.83
2022-11-14T23:09:50.663Z,30.43
2022-11-14T23:12:36.345Z,31.33
2022-11-14T23:15:22.279Z,30.58
2022-11-14T23:18:08.051Z,29.50
2022-11-14T23:20:53.659Z,29.63
2022-11-14T23:23:39.878Z,32.55
2022-11-14T23:26:27.589Z,30.33
2022-11-14T23:29:14.350Z,28.08
2022-11-14T23:32:00.417Z,28.80
2022-11-14T23:34:46.020Z,29.10
2022-11-14T23:37:32.205Z,26.75
2022-11-14T23:40:18.073Z,29.77
2022-11-14T23:43:03.835Z,29.08
2022-11-14T23:48:36.026Z,29.95
2022-11-14T23:51:21.709Z,29.85
2022-11-14T23:54:07.508Z,28.02
2022-11-14T23:56:53.018Z,28.23
2022-11-14T23:59:38.881Z,28.83
